createdAt,value
2017-09-23T00:00:08.167Z,22.78
2017-09-23T00:00:48.621Z,22.77
2017-09-23T00:01:29.077Z,22.76
2017-09-23T00:02:09.523Z,22.76
2017-09-23T00:02:49.984Z,22.73
2017-09-23T00:03:30.439Z,22.74
2017-09-23T00:04:10.908Z,22.77
2017-09-23T00:04:51.370Z,22.74
2017-09-23T00:05:31.837Z,22.77
2017-09-23T00:06:12.275Z,22.76
2017-09-23T00:06:52.733Z,22.74
2017-09-23T00:07:33.180Z,22.74
2017-09-23T00:08:13.646Z,22.77
2017-09-23T00:08:54.093Z,22.71
2017-09-23T00:09:34.554Z,22.74
2017-09-23T00:10:15.344Z,22.74
2017-09-23T00:10:56.379Z,22.74
2017-09-23T00:11:36.977Z,22.74
2017-09-23T00:12:17.557Z,22.74
2017-09-23T00:12:58.148Z,22.76
2017-09-23T00:13:38.544Z,22.71
2017-09-23T00:14:18.992Z,22.74
2017-09-23T00:14:59.430Z,22.73
2017-09-23T00:15:39.875Z,22.71
2017-09-23T00:16:20.362Z,22.73
2017-09-23T00:17:00.820Z,22.74
2017-09-23T00:17:41.578Z,22.68
2017-09-23T00:18:22.259Z,22.74
2017-09-23T00:19:02.820Z,22.63
2017-09-23T00:19:43.292Z,22.76
2017-09-23T00:20:23.729Z,22.74
2017-09-23T00:21:04.189Z,22.68
2017-09-23T00:21:44.667Z,22.65
2017-09-23T00:22:25.119Z,22.68
2017-09-23T00:23:05.572Z,22.68
2017-09-23T00:23:46.028Z,22.65
2017-09-23T00:24:26.482Z,22.7
2017-09-23T00:25:06.937Z,22.71
2017-09-23T00:25:47.383Z,22.7
2017-09-23T00:26:27.837Z,22.7
2017-09-23T00:27:08.291Z,22.73
2017-09-23T00:27:48.746Z,22.7
2017-09-23T00:28:29.199Z,22.71
2017-09-23T00:29:09.830Z,22.73
2017-09-23T00:29:50.328Z,22.71
2017-09-23T00:30:30.929Z,22.71
2017-09-23T00:31:11.474Z,22.71
2017-09-23T00:31:52.085Z,22.71
2017-09-23T00:32:32.659Z,22.76
2017-09-23T00:33:13.101Z,22.74
2017-09-23T00:33:53.550Z,22.63
2017-09-23T00:34:33.996Z,22.74
2017-09-23T00:35:14.476Z,22.74
2017-09-23T00:35:54.931Z,22.76
2017-09-23T00:36:35.384Z,22.71
2017-09-23T00:37:15.835Z,22.65
2017-09-23T00:37:56.288Z,22.76
2017-09-23T00:38:36.738Z,22.73
2017-09-23T00:39:17.192Z,22.73
2017-09-23T00:39:57.655Z,22.68
2017-09-23T00:40:38.114Z,22.76
2017-09-23T00:41:18.582Z,22.73
2017-09-23T00:41:59.029Z,22.76
2017-09-23T00:42:39.489Z,22.68
2017-09-23T00:43:19.941Z,22.74
2017-09-23T00:44:00.387Z,22.65
2017-09-23T00:44:40.842Z,22.74
2017-09-23T00:45:21.295Z,22.71
2017-09-23T00:46:01.748Z,22.71
2017-09-23T00:46:42.205Z,22.67
2017-09-23T00:47:22.661Z,22.7
2017-09-23T00:48:03.113Z,22.71
2017-09-23T00:48:43.574Z,22.68
2017-09-23T00:49:24.032Z,22.71
2017-09-23T00:50:04.493Z,22.71
2017-09-23T00:50:44.951Z,22.71
2017-09-23T00:51:25.489Z,22.77
2017-09-23T00:52:05.962Z,22.68
2017-09-23T00:52:46.407Z,22.68
2017-09-23T00:53:26.859Z,22.73
2017-09-23T00:54:07.312Z,22.73
2017-09-23T00:54:47.764Z,22.76
2017-09-23T00:55:28.213Z,22.74
2017-09-23T00:56:08.671Z,22.71
2017-09-23T00:56:49.120Z,22.71
2017-09-23T00:57:29.581Z,22.67
2017-09-23T00:58:10.035Z,22.74
2017-09-23T00:58:50.490Z,22.7
2017-09-23T00:59:30.949Z,22.68
2017-09-23T01:00:11.414Z,22.7
2017-09-23T01:00:51.871Z,22.71
2017-09-23T01:01:32.326Z,22.67
2017-09-23T01:02:12.784Z,22.67
2017-09-23T01:02:53.238Z,22.74
2017-09-23T01:03:33.684Z,22.76
2017-09-23T01:04:14.135Z,22.73
2017-09-23T01:04:54.589Z,22.7
2017-09-23T01:05:35.050Z,22.68
2017-09-23T01:06:15.506Z,22.71
2017-09-23T01:06:55.950Z,22.74
2017-09-23T01:07:36.407Z,22.71
2017-09-23T01:08:16.850Z,22.73
2017-09-23T01:08:57.307Z,22.71
2017-09-23T01:09:37.756Z,22.7
2017-09-23T01:10:18.203Z,22.71
2017-09-23T01:10:58.666Z,22.68
2017-09-23T01:11:39.121Z,22.71
2017-09-23T01:12:19.589Z,22.76
2017-09-23T01:13:00.036Z,22.63
2017-09-23T01:13:40.501Z,22.71
2017-09-23T01:14:20.968Z,22.73
2017-09-23T01:15:01.387Z,22.71
2017-09-23T01:15:41.841Z,22.71
2017-09-23T01:16:22.292Z,22.74
2017-09-23T01:17:02.740Z,22.73
2017-09-23T01:17:43.197Z,22.68
2017-09-23T01:18:23.652Z,22.67
2017-09-23T01:19:04.107Z,22.68
2017-09-23T01:19:44.570Z,22.76
2017-09-23T01:20:25.027Z,22.7
2017-09-23T01:21:05.476Z,22.71
2017-09-23T01:21:45.935Z,22.7
2017-09-23T01:22:26.386Z,22.71
2017-09-23T01:23:06.840Z,22.7
2017-09-23T01:23:47.291Z,22.73
2017-09-23T01:24:27.747Z,22.68
2017-09-23T01:25:08.202Z,22.62
2017-09-23T01:25:48.651Z,22.76
2017-09-23T01:26:29.108Z,22.65
2017-09-23T01:27:09.568Z,22.7
2017-09-23T01:27:50.026Z,22.76
2017-09-23T01:28:30.475Z,22.73
2017-09-23T01:29:10.924Z,22.7
2017-09-23T01:29:51.402Z,22.68
2017-09-23T01:30:31.839Z,22.7
2017-09-23T01:31:12.280Z,22.68
2017-09-23T01:31:52.736Z,22.71
2017-09-23T01:32:33.185Z,22.65
2017-09-23T01:33:13.635Z,22.67
2017-09-23T01:33:54.090Z,22.65
2017-09-23T01:34:34.543Z,22.7
2017-09-23T01:35:14.996Z,22.7
2017-09-23T01:35:55.444Z,22.68
2017-09-23T01:36:35.889Z,22.71
2017-09-23T01:37:16.356Z,22.74
2017-09-23T01:37:56.811Z,22.68
2017-09-23T01:38:37.267Z,22.62
2017-09-23T01:39:17.709Z,22.71
2017-09-23T01:39:58.156Z,22.62
2017-09-23T01:40:38.617Z,22.67
2017-09-23T01:41:19.096Z,22.65
2017-09-23T01:41:59.548Z,22.74
2017-09-23T01:42:40.006Z,22.63
2017-09-23T01:43:20.460Z,22.62
2017-09-23T01:44:00.916Z,22.67
2017-09-23T01:44:41.393Z,22.63
2017-09-23T01:45:21.813Z,22.56
2017-09-23T01:46:02.268Z,22.62
2017-09-23T01:46:42.730Z,22.58
2017-09-23T01:47:23.186Z,22.63
2017-09-23T01:48:03.639Z,22.62
2017-09-23T01:48:44.093Z,22.7
2017-09-23T01:49:24.538Z,22.61
2017-09-23T01:50:04.994Z,22.59
2017-09-23T01:50:45.452Z,22.61
2017-09-23T01:51:25.912Z,22.58
2017-09-23T01:52:06.375Z,22.63
2017-09-23T01:52:46.829Z,22.61
2017-09-23T01:53:27.291Z,22.61
2017-09-23T01:54:07.727Z,22.58
2017-09-23T01:54:48.185Z,22.56
2017-09-23T01:55:28.638Z,22.61
2017-09-23T01:56:09.098Z,22.61
2017-09-23T01:56:49.549Z,22.59
2017-09-23T01:57:30.007Z,22.61
2017-09-23T01:58:10.459Z,22.58
2017-09-23T01:58:50.914Z,22.58
2017-09-23T02:00:43.733Z,22.63
2017-09-23T02:01:24.159Z,22.63
2017-09-23T02:02:04.598Z,22.62
2017-09-23T02:02:45.048Z,22.58
2017-09-23T02:03:25.506Z,22.65
2017-09-23T02:04:05.964Z,22.55
2017-09-23T02:04:46.411Z,22.65
2017-09-23T02:05:26.872Z,22.59
2017-09-23T02:06:07.331Z,22.58
2017-09-23T02:06:47.783Z,22.61
2017-09-23T02:07:28.233Z,22.63
2017-09-23T02:08:08.703Z,22.58
2017-09-23T02:08:49.173Z,22.63
2017-09-23T02:09:29.605Z,22.59
2017-09-23T02:10:10.059Z,22.63
2017-09-23T02:10:50.518Z,22.65
2017-09-23T02:11:30.966Z,22.56
2017-09-23T02:12:11.436Z,22.58
2017-09-23T02:12:51.876Z,22.56
2017-09-23T02:13:32.332Z,22.51
2017-09-23T02:14:12.783Z,22.58
2017-09-23T02:14:53.226Z,22.62
2017-09-23T02:15:33.680Z,22.63
2017-09-23T02:16:14.134Z,22.62
2017-09-23T02:16:54.591Z,22.51
2017-09-23T02:17:35.041Z,22.49
2017-09-23T02:18:15.503Z,22.59
2017-09-23T02:18:55.960Z,22.53
2017-09-23T02:20:48.569Z,22.56
2017-09-23T02:21:29.022Z,22.52
2017-09-23T02:22:09.476Z,22.52
2017-09-23T02:22:49.933Z,22.51
2017-09-23T02:23:30.387Z,22.51
2017-09-23T02:24:10.840Z,22.53
2017-09-23T02:24:51.285Z,22.49
2017-09-23T02:25:31.740Z,22.53
2017-09-23T02:26:12.191Z,22.49
2017-09-23T02:26:52.626Z,22.53
2017-09-23T02:27:33.087Z,22.47
2017-09-23T02:28:13.547Z,22.61
2017-09-23T02:28:53.999Z,22.61
2017-09-23T02:29:34.458Z,22.61
2017-09-23T02:30:14.921Z,22.52
2017-09-23T02:30:55.367Z,22.51
2017-09-23T02:31:35.825Z,22.63
2017-09-23T02:32:16.279Z,22.56
2017-09-23T02:32:56.829Z,22.49
2017-09-23T02:33:37.283Z,22.63
2017-09-23T02:34:17.731Z,22.55
2017-09-23T02:34:58.190Z,22.58
2017-09-23T02:35:38.639Z,22.58
2017-09-23T02:36:19.097Z,22.43
2017-09-23T02:36:59.552Z,22.61
2017-09-23T02:37:40.005Z,22.62
2017-09-23T02:38:20.454Z,22.61
2017-09-23T02:39:00.919Z,22.52
2017-09-23T02:39:41.365Z,22.61
2017-09-23T02:40:21.817Z,22.53
2017-09-23T02:41:02.271Z,22.49
2017-09-23T02:41:42.729Z,22.61
2017-09-23T02:42:23.176Z,22.52
2017-09-23T02:43:03.634Z,22.51
2017-09-23T02:43:44.088Z,22.47
2017-09-23T02:44:24.553Z,22.44
2017-09-23T02:46:37.315Z,22.53
2017-09-23T02:47:17.751Z,22.44
2017-09-23T02:47:58.205Z,22.56
2017-09-23T02:48:38.660Z,22.53
2017-09-23T02:49:19.291Z,22.47
2017-09-23T02:49:59.752Z,22.46
2017-09-23T02:50:40.189Z,22.58
2017-09-23T02:51:20.638Z,22.58
2017-09-23T02:52:01.087Z,22.53
2017-09-23T02:52:41.529Z,22.59
2017-09-23T02:53:21.983Z,22.55
2017-09-23T02:54:02.428Z,22.58
2017-09-23T02:54:42.876Z,22.55
2017-09-23T02:55:23.324Z,22.52
2017-09-23T02:56:03.773Z,22.53
2017-09-23T02:56:44.250Z,22.55
2017-09-23T02:57:24.697Z,22.51
2017-09-23T02:58:05.160Z,22.47
2017-09-23T02:58:45.619Z,22.47
2017-09-23T02:59:26.076Z,22.51
2017-09-23T03:00:06.542Z,22.46
2017-09-23T03:00:46.988Z,22.46
2017-09-23T03:01:27.449Z,22.52
2017-09-23T03:02:07.900Z,22.55
2017-09-23T03:02:48.347Z,22.51
2017-09-23T03:03:28.798Z,22.47
2017-09-23T03:04:09.254Z,22.46
2017-09-23T03:04:49.825Z,22.49
2017-09-23T03:05:30.281Z,22.47
2017-09-23T03:06:10.728Z,22.53
2017-09-23T03:06:51.182Z,22.55
2017-09-23T03:07:31.626Z,22.51
2017-09-23T03:08:12.085Z,22.52
2017-09-23T03:08:52.532Z,22.52
2017-09-23T03:09:32.984Z,22.55
2017-09-23T03:10:13.430Z,22.51
2017-09-23T03:10:53.880Z,22.53
2017-09-23T03:11:34.337Z,22.52
2017-09-23T03:12:14.795Z,22.52
2017-09-23T03:12:55.252Z,22.52
2017-09-23T03:13:35.709Z,22.53
2017-09-23T03:14:16.159Z,22.59
2017-09-23T03:14:56.621Z,22.49
2017-09-23T03:15:37.063Z,22.49
2017-09-23T03:16:17.529Z,22.47
2017-09-23T03:16:57.984Z,22.4
2017-09-23T03:17:38.421Z,22.51
2017-09-23T03:18:18.885Z,22.49
2017-09-23T03:18:59.337Z,22.49
2017-09-23T03:19:39.792Z,22.53
2017-09-23T03:20:20.222Z,22.47
2017-09-23T03:21:00.664Z,22.51
2017-09-23T03:21:41.106Z,22.51
2017-09-23T03:22:21.562Z,22.44
2017-09-23T03:23:02.001Z,22.46
2017-09-23T03:23:42.463Z,22.51
2017-09-23T03:24:22.914Z,22.51
2017-09-23T03:25:03.362Z,22.49
2017-09-23T03:25:43.808Z,22.41
2017-09-23T03:26:24.263Z,22.51
2017-09-23T03:27:04.721Z,22.44
2017-09-23T03:27:45.253Z,22.47
2017-09-23T03:28:25.705Z,22.49
2017-09-23T03:29:06.155Z,22.53
2017-09-23T03:29:46.595Z,22.49
2017-09-23T03:30:27.067Z,22.52
2017-09-23T03:31:07.522Z,22.47
2017-09-23T03:31:47.953Z,22.52
2017-09-23T03:32:28.417Z,22.52
2017-09-23T03:34:26.172Z,22.53
2017-09-23T03:35:06.616Z,22.43
2017-09-23T03:35:47.077Z,22.41
2017-09-23T03:36:27.537Z,22.4
2017-09-23T03:37:08.000Z,22.47
2017-09-23T03:37:48.451Z,22.4
2017-09-23T03:38:28.903Z,22.47
2017-09-23T03:39:09.369Z,22.4
2017-09-23T03:39:49.830Z,22.34
2017-09-23T03:40:30.282Z,22.43
2017-09-23T03:41:10.730Z,22.37
2017-09-23T03:41:51.185Z,22.49
2017-09-23T03:42:31.633Z,22.43
2017-09-23T03:43:12.076Z,22.41
2017-09-23T03:43:52.536Z,22.41
2017-09-23T03:44:32.989Z,22.46
2017-09-23T03:45:13.434Z,22.43
2017-09-23T03:45:53.882Z,22.46
2017-09-23T03:46:34.334Z,22.41
2017-09-23T03:47:14.788Z,22.4
2017-09-23T03:47:55.236Z,22.4
2017-09-23T03:48:35.936Z,22.44
2017-09-23T03:49:16.407Z,22.41
2017-09-23T03:49:56.860Z,22.38
2017-09-23T03:50:37.299Z,22.47
2017-09-23T03:51:17.752Z,22.46
2017-09-23T03:51:58.214Z,22.37
2017-09-23T03:52:38.658Z,22.44
2017-09-23T03:53:19.112Z,22.4
2017-09-23T03:53:59.554Z,22.44
2017-09-23T03:54:40.010Z,22.37
2017-09-23T03:55:20.461Z,22.46
2017-09-23T03:57:33.253Z,22.43
2017-09-23T03:58:13.699Z,22.44
2017-09-23T03:58:54.159Z,22.41
2017-09-23T03:59:34.611Z,22.38
2017-09-23T04:00:15.061Z,22.47
2017-09-23T04:00:55.511Z,22.36
2017-09-23T04:01:35.962Z,22.44
2017-09-23T04:02:16.415Z,22.4
2017-09-23T04:02:56.867Z,22.41
2017-09-23T04:03:37.318Z,22.43
2017-09-23T04:04:17.773Z,22.47
2017-09-23T04:04:58.226Z,22.51
2017-09-23T04:05:38.668Z,22.52
2017-09-23T04:06:19.121Z,22.51
2017-09-23T04:06:59.533Z,22.51
2017-09-23T04:07:39.988Z,22.59
2017-09-23T04:08:20.442Z,22.58
2017-09-23T04:09:00.899Z,22.49
2017-09-23T04:09:41.343Z,22.55
2017-09-23T04:10:21.796Z,22.47
2017-09-23T04:11:02.251Z,22.46
2017-09-23T04:11:42.708Z,22.58
2017-09-23T04:12:23.166Z,22.44
2017-09-23T04:13:03.618Z,22.46
2017-09-23T04:13:44.081Z,22.62
2017-09-23T04:14:24.570Z,22.53
2017-09-23T04:15:04.990Z,22.61
2017-09-23T04:15:45.439Z,22.52
2017-09-23T04:16:25.894Z,22.58
2017-09-23T04:17:06.345Z,22.58
2017-09-23T04:17:46.799Z,22.61
2017-09-23T04:18:27.254Z,22.63
2017-09-23T04:19:07.705Z,22.63
2017-09-23T04:19:48.151Z,22.59
2017-09-23T04:20:28.600Z,22.59
2017-09-23T04:21:09.072Z,22.62
2017-09-23T04:21:49.519Z,22.68
2017-09-23T04:22:29.958Z,22.7
2017-09-23T04:23:10.430Z,22.74
2017-09-23T04:23:50.870Z,22.65
2017-09-23T04:24:31.319Z,22.7
2017-09-23T04:25:11.770Z,22.63
2017-09-23T04:25:52.214Z,22.71
2017-09-23T04:26:32.679Z,22.71
2017-09-23T04:27:13.145Z,22.68
2017-09-23T04:27:53.586Z,22.74
2017-09-23T04:28:34.024Z,22.71
2017-09-23T04:29:14.471Z,22.73
2017-09-23T04:29:54.927Z,22.63
2017-09-23T04:30:35.373Z,22.76
2017-09-23T04:31:15.822Z,22.74
2017-09-23T04:31:56.279Z,22.77
2017-09-23T04:32:36.737Z,22.71
2017-09-23T04:33:17.184Z,22.71
2017-09-23T04:33:57.633Z,22.7
2017-09-23T04:34:38.096Z,22.76
2017-09-23T04:35:18.555Z,22.67
2017-09-23T04:35:59.013Z,22.68
2017-09-23T04:36:39.473Z,22.68
2017-09-23T04:37:19.921Z,22.73
2017-09-23T04:38:00.380Z,22.74
2017-09-23T04:38:40.813Z,22.7
2017-09-23T04:39:21.272Z,22.71
2017-09-23T04:40:01.704Z,22.74
2017-09-23T04:40:42.172Z,22.73
2017-09-23T04:41:22.627Z,22.71
2017-09-23T04:42:03.084Z,22.68
2017-09-23T04:42:43.537Z,22.65
2017-09-23T04:43:23.993Z,22.76
2017-09-23T04:44:04.450Z,22.73
2017-09-23T04:44:44.909Z,22.76
2017-09-23T04:45:25.360Z,22.73
2017-09-23T04:46:05.811Z,22.76
2017-09-23T04:46:46.285Z,22.74
2017-09-23T04:47:26.746Z,22.73
2017-09-23T04:48:07.195Z,22.68
2017-09-23T04:48:47.630Z,22.73
2017-09-23T04:49:28.093Z,22.73
2017-09-23T04:50:08.548Z,22.68
2017-09-23T04:50:49.002Z,22.74
2017-09-23T04:51:29.460Z,22.71
2017-09-23T04:52:09.918Z,22.71
2017-09-23T04:52:50.374Z,22.68
2017-09-23T04:53:30.828Z,22.68
2017-09-23T04:54:11.270Z,22.74
2017-09-23T04:54:51.731Z,22.73
2017-09-23T04:55:32.210Z,22.67
2017-09-23T04:56:12.647Z,22.71
2017-09-23T04:56:53.107Z,22.73
2017-09-23T04:57:33.554Z,22.77
2017-09-23T04:58:14.012Z,22.62
2017-09-23T04:58:54.497Z,22.74
2017-09-23T04:59:34.906Z,22.76
2017-09-23T05:00:15.395Z,22.71
2017-09-23T05:00:55.841Z,22.73
2017-09-23T05:01:36.290Z,22.71
2017-09-23T05:02:16.761Z,22.71
2017-09-23T05:02:57.248Z,22.74
2017-09-23T05:03:37.681Z,22.63
2017-09-23T05:04:18.186Z,22.73
2017-09-23T05:04:58.635Z,22.73
2017-09-23T05:05:39.088Z,22.71
2017-09-23T05:06:19.552Z,22.74
2017-09-23T05:07:00.012Z,22.65
2017-09-23T05:07:40.480Z,22.74
2017-09-23T05:08:20.932Z,22.65
2017-09-23T05:09:01.384Z,22.67
2017-09-23T05:09:41.819Z,22.65
2017-09-23T05:10:22.265Z,22.7
2017-09-23T05:11:02.719Z,22.67
2017-09-23T05:11:43.169Z,22.61
2017-09-23T05:12:23.623Z,22.67
2017-09-23T05:13:04.079Z,22.7
2017-09-23T05:13:44.546Z,22.67
2017-09-23T05:14:24.998Z,22.58
2017-09-23T05:15:05.471Z,22.71
2017-09-23T05:15:45.943Z,22.62
2017-09-23T05:16:26.451Z,22.7
2017-09-23T05:17:06.870Z,22.67
2017-09-23T05:17:47.315Z,22.67
2017-09-23T05:18:27.770Z,22.68
2017-09-23T05:19:08.227Z,22.67
2017-09-23T05:19:48.679Z,22.67
2017-09-23T05:20:29.137Z,22.63
2017-09-23T05:21:09.629Z,22.65
2017-09-23T05:21:50.080Z,22.61
2017-09-23T05:22:30.534Z,22.65
2017-09-23T05:23:10.990Z,22.59
2017-09-23T05:23:51.443Z,22.7
2017-09-23T05:24:31.896Z,22.71
2017-09-23T05:25:12.341Z,22.62
2017-09-23T05:25:52.802Z,22.62
2017-09-23T05:26:33.256Z,22.7
2017-09-23T05:27:13.713Z,22.68
2017-09-23T05:27:54.165Z,22.62
2017-09-23T05:28:34.619Z,22.65
2017-09-23T05:29:15.072Z,22.62
2017-09-23T05:29:55.515Z,22.63
2017-09-23T05:30:35.994Z,22.62
2017-09-23T05:31:16.470Z,22.68
2017-09-23T05:31:56.947Z,22.71
2017-09-23T05:32:37.402Z,22.63
2017-09-23T05:33:17.876Z,22.67
2017-09-23T05:33:58.348Z,22.61
2017-09-23T05:34:38.781Z,22.62
2017-09-23T05:35:19.232Z,22.55
2017-09-23T05:35:59.692Z,22.61
2017-09-23T05:36:40.148Z,22.67
2017-09-23T05:37:20.598Z,22.61
2017-09-23T05:38:01.054Z,22.67
2017-09-23T05:38:41.502Z,22.67
2017-09-23T05:39:21.966Z,22.63
2017-09-23T05:40:02.429Z,22.65
2017-09-23T05:40:42.861Z,22.67
2017-09-23T05:41:23.318Z,22.71
2017-09-23T05:42:03.765Z,22.65
2017-09-23T05:42:44.220Z,22.74
2017-09-23T05:43:24.675Z,22.71
2017-09-23T05:44:05.134Z,22.73
2017-09-23T05:44:45.583Z,22.73
2017-09-23T05:45:26.025Z,22.74
2017-09-23T05:46:06.515Z,22.68
2017-09-23T05:46:46.984Z,22.74
2017-09-23T05:47:27.438Z,22.74
2017-09-23T05:48:07.889Z,22.76
2017-09-23T05:48:48.330Z,22.67
2017-09-23T05:49:28.782Z,22.77
2017-09-23T05:50:09.625Z,22.76
2017-09-23T05:50:50.066Z,22.76
2017-09-23T05:51:30.526Z,22.76
2017-09-23T05:52:11.009Z,22.78
2017-09-23T05:52:51.464Z,22.71
2017-09-23T05:53:31.919Z,22.73
2017-09-23T05:54:12.378Z,22.86
2017-09-23T05:54:52.846Z,22.71
2017-09-23T05:55:33.297Z,22.71
2017-09-23T05:56:13.742Z,22.68
2017-09-23T05:56:54.189Z,22.77
2017-09-23T05:57:34.638Z,22.77
2017-09-23T05:58:15.098Z,22.76
2017-09-23T05:58:55.560Z,22.73
2017-09-23T05:59:36.018Z,22.74
2017-09-23T06:00:16.478Z,22.7
2017-09-23T06:00:56.928Z,22.7
2017-09-23T06:01:37.382Z,22.8
2017-09-23T06:02:17.835Z,22.7
2017-09-23T06:02:58.296Z,22.76
2017-09-23T06:03:38.765Z,22.83
2017-09-23T06:04:19.212Z,22.8
2017-09-23T06:04:59.695Z,22.81
2017-09-23T06:05:41.208Z,22.76
2017-09-23T06:06:21.677Z,22.84
2017-09-23T06:07:02.131Z,22.8
2017-09-23T06:07:42.572Z,22.8
2017-09-23T06:08:23.026Z,22.7
2017-09-23T06:09:03.477Z,22.77
2017-09-23T06:09:43.941Z,22.77
2017-09-23T06:10:24.428Z,22.81
2017-09-23T06:11:04.881Z,22.81
2017-09-23T06:11:45.340Z,22.8
2017-09-23T06:12:25.944Z,22.83
2017-09-23T06:13:06.270Z,22.84
2017-09-23T06:13:46.721Z,22.8
2017-09-23T06:14:27.195Z,22.8
2017-09-23T06:15:07.695Z,22.8
2017-09-23T06:15:48.122Z,22.83
2017-09-23T06:16:28.578Z,22.81
2017-09-23T06:17:09.031Z,22.83
2017-09-23T06:17:49.484Z,22.84
2017-09-23T06:18:29.940Z,22.81
2017-09-23T06:19:10.391Z,22.88
2017-09-23T06:19:50.856Z,22.83
2017-09-23T06:20:31.301Z,22.89
2017-09-23T06:22:23.896Z,22.88
2017-09-23T06:23:04.362Z,22.81
2017-09-23T06:23:44.814Z,22.88
2017-09-23T06:24:25.281Z,22.92
2017-09-23T06:25:05.740Z,22.89
2017-09-23T06:25:46.188Z,22.89
2017-09-23T06:26:26.635Z,22.86
2017-09-23T06:28:19.270Z,22.92
2017-09-23T06:28:59.718Z,22.93
2017-09-23T06:29:40.164Z,22.96
2017-09-23T06:30:20.622Z,22.95
2017-09-23T06:31:01.075Z,22.92
2017-09-23T06:31:41.533Z,22.89
2017-09-23T06:32:21.972Z,22.93
2017-09-23T06:33:02.431Z,22.92
2017-09-23T06:33:42.888Z,22.99
2017-09-23T06:34:23.366Z,23.02
2017-09-23T06:35:03.837Z,22.96
2017-09-23T06:35:44.311Z,22.99
2017-09-23T06:36:24.753Z,22.93
2017-09-23T06:37:05.208Z,22.96
2017-09-23T06:37:45.647Z,22.96
2017-09-23T06:38:26.096Z,22.96
2017-09-23T06:39:06.564Z,23.06
2017-09-23T06:39:47.014Z,23.02
2017-09-23T06:40:27.495Z,22.98
2017-09-23T06:41:07.958Z,23.04
2017-09-23T06:42:55.462Z,23.1
2017-09-23T06:43:35.902Z,23.01
2017-09-23T06:44:16.343Z,23.01
2017-09-23T06:44:56.791Z,23.06
2017-09-23T06:45:37.241Z,23.06
2017-09-23T06:46:17.721Z,23.06
2017-09-23T06:46:58.131Z,23.06
2017-09-23T06:47:38.624Z,23.01
2017-09-23T06:48:19.084Z,23.11
2017-09-23T06:48:59.535Z,23.13
2017-09-23T06:49:39.982Z,23.07
2017-09-23T06:50:20.437Z,23.14
2017-09-23T06:51:00.896Z,23.1
2017-09-23T06:51:41.340Z,23.11
2017-09-23T06:52:21.783Z,23.18
2017-09-23T06:53:02.219Z,23.17
2017-09-23T06:53:42.668Z,23.18
2017-09-23T06:54:23.124Z,23.13
2017-09-23T06:55:03.573Z,23.13
2017-09-23T06:55:44.031Z,23.13
2017-09-23T06:56:24.546Z,23.14
2017-09-23T06:57:05.016Z,23.21
2017-09-23T06:58:57.621Z,23.26
2017-09-23T06:59:38.069Z,23.32
2017-09-23T07:00:18.531Z,23.32
2017-09-23T07:00:59.020Z,23.26
2017-09-23T07:01:39.445Z,23.29
2017-09-23T07:02:19.885Z,23.29
2017-09-23T07:03:00.360Z,23.28
2017-09-23T07:03:40.816Z,23.26
2017-09-23T07:04:21.264Z,23.26
2017-09-23T07:05:01.723Z,23.33
2017-09-23T07:05:42.173Z,23.32
2017-09-23T07:06:22.630Z,23.37
2017-09-23T07:07:03.100Z,23.32
2017-09-23T07:07:43.564Z,23.36
2017-09-23T07:09:21.016Z,23.28
2017-09-23T07:10:01.473Z,23.37
2017-09-23T07:10:41.926Z,23.26
2017-09-23T07:11:22.380Z,23.26
2017-09-23T07:12:02.831Z,23.36
2017-09-23T07:12:43.288Z,23.39
2017-09-23T07:13:23.781Z,23.4
2017-09-23T07:14:04.205Z,23.47
2017-09-23T07:14:44.657Z,23.47
2017-09-23T07:15:25.100Z,23.47
2017-09-23T07:16:05.560Z,23.47
2017-09-23T07:16:46.006Z,23.42
2017-09-23T07:17:26.454Z,23.48
2017-09-23T07:18:06.911Z,23.49
2017-09-23T07:18:47.343Z,23.51
2017-09-23T07:19:27.763Z,23.54
2017-09-23T07:20:08.211Z,23.55
2017-09-23T07:20:48.672Z,23.52
2017-09-23T07:21:29.115Z,23.58
2017-09-23T07:22:09.567Z,23.63
2017-09-23T07:22:50.030Z,23.66
2017-09-23T07:23:30.480Z,23.63
2017-09-23T07:24:10.919Z,23.69
2017-09-23T07:24:51.375Z,23.69
2017-09-23T07:25:31.827Z,23.66
2017-09-23T07:26:12.281Z,23.7
2017-09-23T07:26:52.727Z,23.74
2017-09-23T07:27:33.181Z,23.76
2017-09-23T07:28:13.632Z,23.73
2017-09-23T07:28:54.086Z,23.73
2017-09-23T07:29:34.580Z,23.73
2017-09-23T07:30:15.101Z,23.7
2017-09-23T07:30:55.554Z,23.73
2017-09-23T07:31:36.005Z,23.77
2017-09-23T07:33:28.656Z,23.84
2017-09-23T07:34:09.089Z,23.79
2017-09-23T07:34:49.538Z,23.82
2017-09-23T07:35:29.974Z,23.89
2017-09-23T07:36:10.413Z,23.94
2017-09-23T07:36:50.871Z,23.91
2017-09-23T07:37:31.320Z,23.89
2017-09-23T07:38:11.780Z,23.88
2017-09-23T07:38:52.235Z,23.96
2017-09-23T07:39:32.688Z,24
2017-09-23T07:40:13.148Z,23.94
2017-09-23T07:40:53.604Z,23.94
2017-09-23T07:41:34.044Z,23.92
2017-09-23T07:42:14.498Z,23.96
2017-09-23T07:42:54.948Z,23.92
2017-09-23T07:43:35.396Z,24.01
2017-09-23T07:44:15.852Z,24.04
2017-09-23T07:44:56.319Z,24.06
2017-09-23T07:45:36.778Z,24.04
2017-09-23T07:46:17.248Z,24.09
2017-09-23T07:46:57.683Z,24.1
2017-09-23T07:47:38.134Z,24.1
2017-09-23T07:48:18.598Z,24.13
2017-09-23T07:48:59.069Z,24.11
2017-09-23T07:49:39.529Z,24.13
2017-09-23T07:50:20.110Z,24.1
2017-09-23T07:51:00.633Z,24.19
2017-09-23T07:51:41.136Z,24.14
2017-09-23T07:52:21.584Z,24.19
2017-09-23T07:53:02.034Z,24.16
2017-09-23T07:53:42.497Z,24.21
2017-09-23T07:54:22.911Z,24.19
2017-09-23T07:56:00.540Z,24.26
2017-09-23T07:56:40.998Z,24.26
2017-09-23T07:57:21.545Z,24.26
2017-09-23T07:58:02.002Z,24.31
2017-09-23T07:58:42.482Z,24.37
2017-09-23T07:59:22.931Z,24.38
2017-09-23T08:00:03.386Z,24.4
2017-09-23T08:00:43.832Z,24.41
2017-09-23T08:01:24.289Z,24.43
2017-09-23T08:02:04.739Z,24.47
2017-09-23T08:02:45.194Z,24.47
2017-09-23T08:03:25.651Z,24.48
2017-09-23T08:04:06.100Z,24.48
2017-09-23T08:04:46.561Z,24.48
2017-09-23T08:05:27.007Z,24.47
2017-09-23T08:06:07.466Z,24.44
2017-09-23T08:06:47.920Z,24.59
2017-09-23T08:07:28.362Z,24.55
2017-09-23T08:08:08.821Z,24.56
2017-09-23T08:08:49.280Z,24.62
2017-09-23T08:09:29.738Z,24.61
2017-09-23T08:10:10.194Z,24.58
2017-09-23T08:10:50.645Z,24.61
2017-09-23T08:11:31.096Z,24.61
2017-09-23T08:12:11.553Z,24.61
2017-09-23T08:12:52.013Z,24.65
2017-09-23T08:13:32.621Z,24.62
2017-09-23T08:14:13.066Z,24.66
2017-09-23T08:14:53.508Z,24.65
2017-09-23T08:15:33.958Z,24.71
2017-09-23T08:16:14.408Z,24.63
2017-09-23T08:16:54.865Z,24.74
2017-09-23T08:17:35.327Z,24.74
2017-09-23T08:18:15.777Z,24.66
2017-09-23T08:18:56.229Z,24.79
2017-09-23T08:19:36.706Z,24.81
2017-09-23T08:20:17.158Z,24.82
2017-09-23T08:20:57.617Z,24.84
2017-09-23T08:21:38.082Z,24.88
2017-09-23T08:22:18.519Z,24.92
2017-09-23T08:22:58.961Z,24.92
2017-09-23T08:23:39.427Z,24.82
2017-09-23T08:24:19.890Z,24.97
2017-09-23T08:25:00.346Z,24.96
2017-09-23T08:25:40.806Z,24.96
2017-09-23T08:26:21.265Z,24.99
2017-09-23T08:27:01.723Z,25
2017-09-23T08:27:42.174Z,24.93
2017-09-23T08:28:22.635Z,24.96
2017-09-23T08:29:03.102Z,24.99
2017-09-23T08:29:43.554Z,24.97
2017-09-23T08:30:24.017Z,25.04
2017-09-23T08:31:04.467Z,25.03
2017-09-23T08:31:44.922Z,25.01
2017-09-23T08:32:25.372Z,24.99
2017-09-23T08:33:05.846Z,25.01
2017-09-23T08:33:46.303Z,25.15
2017-09-23T08:34:26.759Z,25.15
2017-09-23T08:35:07.211Z,25.19
2017-09-23T08:35:47.665Z,25.16
2017-09-23T08:36:28.120Z,25.21
2017-09-23T08:37:08.576Z,25.41
2017-09-23T08:37:49.032Z,25.49
2017-09-23T08:38:29.495Z,25.52
2017-09-23T08:39:09.938Z,25.58
2017-09-23T08:39:50.401Z,25.56
2017-09-23T08:40:30.861Z,25.54
2017-09-23T08:41:11.313Z,25.62
2017-09-23T08:41:51.763Z,25.66
2017-09-23T08:42:32.210Z,25.58
2017-09-23T08:43:12.669Z,25.61
2017-09-23T08:43:53.128Z,25.56
2017-09-23T08:44:33.584Z,25.63
2017-09-23T08:45:14.037Z,25.73
2017-09-23T08:45:54.502Z,25.7
2017-09-23T08:46:34.943Z,25.71
2017-09-23T08:47:15.415Z,25.7
2017-09-23T08:47:55.973Z,25.74
2017-09-23T08:48:36.338Z,25.73
2017-09-23T08:49:16.780Z,25.73
2017-09-23T08:49:57.250Z,25.8
2017-09-23T08:50:37.713Z,25.76
2017-09-23T08:51:18.151Z,25.78
2017-09-23T08:51:58.611Z,25.83
2017-09-23T08:52:39.064Z,25.85
2017-09-23T08:53:19.527Z,25.85
2017-09-23T08:53:59.971Z,25.83
2017-09-23T08:54:40.440Z,25.91
2017-09-23T08:55:20.893Z,25.83
2017-09-23T08:56:01.351Z,25.81
2017-09-23T08:56:41.805Z,25.93